sensor_id;sensor_type;location;lat;lon;timestamp;P1;P2;P0
62778;PMS7003;48821;48.796;2.396;2024-01-30T00:00:23;48.40;39.00;26.20
62778;PMS7003;48821;48.796;2.396;2024-01-30T00:01:35;46.00;36.80;25.60
62778;PMS7003;48821;48.796;2.396;2024-01-30T00:02:47;45.20;37.80;24.20
62778;PMS7003;48821;48.796;2.396;2024-01-30T00:03:59;45.20;38.00;25.00
62778;PMS7003;48821;48.796;2.396;2024-01-30T00:05:11;45.40;38.00;23.80
62778;PMS7003;48821;48.796;2.396;2024-01-30T00:06:23;46.60;37.40;25.40
62778;PMS7003;48821;48.796;2.396;2024-01-30T00:07:36;47.00;39.00;24.50
62778;PMS7003;48821;48.796;2.396;2024-01-30T00:08:48;51.40;38.40;24.40
62778;PMS7003;48821;48.796;2.396;2024-01-30T00:10:00;42.60;37.00;25.80
62778;PMS7003;48821;48.796;2.396;2024-01-30T00:11:12;45.60;36.60;24.00
62778;PMS7003;48821;48.796;2.396;2024-01-30T00:12:24;44.00;36.60;23.60
62778;PMS7003;48821;48.796;2.396;2024-01-30T00:13:36;40.60;34.40;23.80
62778;PMS7003;48821;48.796;2.396;2024-01-30T00:14:48;47.40;38.00;25.00
62778;PMS7003;48821;48.796;2.396;2024-01-30T00:16:00;46.00;37.80;25.40
62778;PMS7003;48821;48.796;2.396;2024-01-30T00:17:12;45.00;37.20;25.40
62778;PMS7003;48821;48.796;2.396;2024-01-30T00:18:24;45.60;37.40;24.00
62778;PMS7003;48821;48.796;2.396;2024-01-30T00:19:36;46.40;38.00;24.20
62778;PMS7003;48821;48.796;2.396;2024-01-30T00:20:48;46.60;36.60;24.00
62778;PMS7003;48821;48.796;2.396;2024-01-30T00:22:00;48.00;38.20;24.60
62778;PMS7003;48821;48.796;2.396;2024-01-30T00:23:12;41.33;34.00;24.33
62778;PMS7003;48821;48.796;2.396;2024-01-30T00:24:24;45.80;35.40;24.00
62778;PMS7003;48821;48.796;2.396;2024-01-30T00:25:36;42.60;34.80;23.40
62778;PMS7003;48821;48.796;2.396;2024-01-30T00:26:48;42.00;35.00;22.33
62778;PMS7003;48821;48.796;2.396;2024-01-30T00:28:00;43.60;35.20;22.80
62778;PMS7003;48821;48.796;2.396;2024-01-30T00:29:12;46.40;35.00;23.40
62778;PMS7003;48821;48.796;2.396;2024-01-30T00:30:29;45.50;37.00;22.50
62778;PMS7003;48821;48.796;2.396;2024-01-30T00:31:41;45.20;37.80;24.20
62778;PMS7003;48821;48.796;2.396;2024-01-30T00:32:53;43.00;35.20;23.00
62778;PMS7003;48821;48.796;2.396;2024-01-30T00:34:04;48.50;36.50;23.00
62778;PMS7003;48821;48.796;2.396;2024-01-30T00:35:16;41.00;35.60;23.60
62778;PMS7003;48821;48.796;2.396;2024-01-30T00:36:28;43.80;36.00;23.20
62778;PMS7003;48821;48.796;2.396;2024-01-30T00:37:41;46.67;37.67;24.33
62778;PMS7003;48821;48.796;2.396;2024-01-30T00:38:53;41.20;34.20;23.00
62778;PMS7003;48821;48.796;2.396;2024-01-30T00:40:05;45.20;36.40;23.00
62778;PMS7003;48821;48.796;2.396;2024-01-30T00:41:17;39.60;32.40;22.00
62778;PMS7003;48821;48.796;2.396;2024-01-30T00:42:30;35.33;31.67;21.33
62778;PMS7003;48821;48.796;2.396;2024-01-30T00:43:42;41.00;34.60;23.80
62778;PMS7003;48821;48.796;2.396;2024-01-30T00:44:54;42.20;33.80;22.80
62778;PMS7003;48821;48.796;2.396;2024-01-30T00:46:06;43.20;36.00;23.80
62778;PMS7003;48821;48.796;2.396;2024-01-30T00:47:18;45.40;36.20;22.80
62778;PMS7003;48821;48.796;2.396;2024-01-30T00:48:31;45.14;35.43;23.71
62778;PMS7003;48821;48.796;2.396;2024-01-30T00:49:42;39.40;33.20;22.00
62778;PMS7003;48821;48.796;2.396;2024-01-30T00:50:54;37.20;32.80;23.20
62778;PMS7003;48821;48.796;2.396;2024-01-30T00:52:06;42.40;35.60;24.00
62778;PMS7003;48821;48.796;2.396;2024-01-30T00:53:18;45.33;36.67;24.00
62778;PMS7003;48821;48.796;2.396;2024-01-30T00:54:30;47.20;35.60;23.40
62778;PMS7003;48821;48.796;2.396;2024-01-30T00:55:43;39.80;34.40;22.20
62778;PMS7003;48821;48.796;2.396;2024-01-30T00:56:53;44.00;36.00;24.00
62778;PMS7003;48821;48.796;2.396;2024-01-30T00:58:05;43.60;34.80;22.80
62778;PMS7003;48821;48.796;2.396;2024-01-30T00:59:17;43.40;34.80;22.60
62778;PMS7003;48821;48.796;2.396;2024-01-30T01:00:29;39.20;32.80;22.40
62778;PMS7003;48821;48.796;2.396;2024-01-30T01:01:41;41.50;34.00;22.50
62778;PMS7003;48821;48.796;2.396;2024-01-30T01:02:53;41.20;34.60;22.20
62778;PMS7003;48821;48.796;2.396;2024-01-30T01:04:05;37.60;32.80;22.80
62778;PMS7003;48821;48.796;2.396;2024-01-30T01:05:17;43.20;34.40;21.80
62778;PMS7003;48821;48.796;2.396;2024-01-30T01:06:29;44.40;34.80;22.40
62778;PMS7003;48821;48.796;2.396;2024-01-30T01:07:41;38.40;34.20;21.80
62778;PMS7003;48821;48.796;2.396;2024-01-30T01:08:52;44.50;36.00;24.00
62778;PMS7003;48821;48.796;2.396;2024-01-30T01:10:04;41.60;34.80;22.60
62778;PMS7003;48821;48.796;2.396;2024-01-30T01:11:16;42.80;34.60;23.00
62778;PMS7003;48821;48.796;2.396;2024-01-30T01:12:28;35.20;30.00;22.00
62778;PMS7003;48821;48.796;2.396;2024-01-30T01:13:40;44.00;35.60;22.00
62778;PMS7003;48821;48.796;2.396;2024-01-30T01:14:52;41.80;34.60;22.20
62778;PMS7003;48821;48.796;2.396;2024-01-30T01:16:04;45.60;35.00;23.00
62778;PMS7003;48821;48.796;2.396;2024-01-30T01:17:16;41.60;34.40;23.00
62778;PMS7003;48821;48.796;2.396;2024-01-30T01:18:29;44.00;35.00;23.00
62778;PMS7003;48821;48.796;2.396;2024-01-30T01:19:40;40.33;33.33;23.00
62778;PMS7003;48821;48.796;2.396;2024-01-30T01:20:52;36.33;32.00;23.00
62778;PMS7003;48821;48.796;2.396;2024-01-30T01:22:04;45.00;35.20;22.60
62778;PMS7003;48821;48.796;2.396;2024-01-30T01:23:16;46.80;36.60;23.60
62778;PMS7003;48821;48.796;2.396;2024-01-30T01:24:28;41.20;36.00;23.20
62778;PMS7003;48821;48.796;2.396;2024-01-30T01:25:40;45.00;35.00;22.00
62778;PMS7003;48821;48.796;2.396;2024-01-30T01:26:51;37.00;33.00;22.00
62778;PMS7003;48821;48.796;2.396;2024-01-30T01:28:03;40.60;34.80;23.00
62778;PMS7003;48821;48.796;2.396;2024-01-30T01:29:15;44.80;34.80;23.00
62778;PMS7003;48821;48.796;2.396;2024-01-30T01:30:26;37.00;32.50;22.00
62778;PMS7003;48821;48.796;2.396;2024-01-30T01:31:39;41.00;35.00;22.00
62778;PMS7003;48821;48.796;2.396;2024-01-30T01:32:53;44.50;34.50;23.00
62778;PMS7003;48821;48.796;2.396;2024-01-30T01:34:07;45.50;35.00;23.00
62778;PMS7003;48821;48.796;2.396;2024-01-30T01:35:19;41.60;34.60;23.60
62778;PMS7003;48821;48.796;2.396;2024-01-30T01:36:34;42.00;33.50;22.00
62778;PMS7003;48821;48.796;2.396;2024-01-30T01:37:46;38.60;33.00;23.00
62778;PMS7003;48821;48.796;2.396;2024-01-30T01:38:58;40.20;34.20;21.20
62778;PMS7003;48821;48.796;2.396;2024-01-30T01:40:10;45.80;38.00;23.00
62778;PMS7003;48821;48.796;2.396;2024-01-30T01:41:22;38.00;33.60;23.00
62778;PMS7003;48821;48.796;2.396;2024-01-30T01:42:34;40.80;32.40;22.40
62778;PMS7003;48821;48.796;2.396;2024-01-30T01:43:46;37.67;32.33;22.00
62778;PMS7003;48821;48.796;2.396;2024-01-30T01:44:57;44.00;36.00;23.00
62778;PMS7003;48821;48.796;2.396;2024-01-30T01:46:09;33.00;30.00;16.67
62778;PMS7003;48821;48.796;2.396;2024-01-30T01:47:21;37.80;32.20;21.00
62778;PMS7003;48821;48.796;2.396;2024-01-30T01:48:33;38.00;32.33;21.67
62778;PMS7003;48821;48.796;2.396;2024-01-30T01:49:45;35.60;32.80;21.80
62778;PMS7003;48821;48.796;2.396;2024-01-30T01:50:57;43.00;32.80;22.00
62778;PMS7003;48821;48.796;2.396;2024-01-30T01:52:09;41.00;33.00;21.50
62778;PMS7003;48821;48.796;2.396;2024-01-30T01:53:21;39.00;32.00;20.20
62778;PMS7003;48821;48.796;2.396;2024-01-30T01:54:33;36.60;30.40;20.00
62778;PMS7003;48821;48.796;2.396;2024-01-30T01:55:45;38.60;30.00;19.40
62778;PMS7003;48821;48.796;2.396;2024-01-30T01:56:57;36.00;30.00;20.20
62778;PMS7003;48821;48.796;2.396;2024-01-30T01:58:09;34.00;30.00;20.00
62778;PMS7003;48821;48.796;2.396;2024-01-30T01:59:20;38.50;32.50;20.50
62778;PMS7003;48821;48.796;2.396;2024-01-30T02:00:32;27.67;23.00;14.67
62778;PMS7003;48821;48.796;2.396;2024-01-30T02:01:44;35.20;31.60;20.00
62778;PMS7003;48821;48.796;2.396;2024-01-30T02:02:59;34.50;28.50;19.00
62778;PMS7003;48821;48.796;2.396;2024-01-30T02:04:10;32.50;30.00;20.00
62778;PMS7003;48821;48.796;2.396;2024-01-30T02:05:22;38.20;32.40;21.20
62778;PMS7003;48821;48.796;2.396;2024-01-30T02:06:35;37.00;33.00;22.00
62778;PMS7003;48821;48.796;2.396;2024-01-30T02:07:47;33.80;28.40;19.60
62778;PMS7003;48821;48.796;2.396;2024-01-30T02:08:59;24.33;21.67;14.67
62778;PMS7003;48821;48.796;2.396;2024-01-30T02:10:10;35.20;30.20;20.80
62778;PMS7003;48821;48.796;2.396;2024-01-30T02:11:23;32.60;27.80;19.20
62778;PMS7003;48821;48.796;2.396;2024-01-30T02:12:34;29.00;27.50;19.00
62778;PMS7003;48821;48.796;2.396;2024-01-30T02:13:46;30.40;28.00;18.80
62778;PMS7003;48821;48.796;2.396;2024-01-30T02:14:58;34.40;30.60;20.00
62778;PMS7003;48821;48.796;2.396;2024-01-30T02:16:10;32.20;26.60;19.00
62778;PMS7003;48821;48.796;2.396;2024-01-30T02:17:22;31.60;29.20;18.80
62778;PMS7003;48821;48.796;2.396;2024-01-30T02:18:37;19.14;15.86;6.86
62778;PMS7003;48821;48.796;2.396;2024-01-30T02:19:52;32.00;30.00;21.00
62778;PMS7003;48821;48.796;2.396;2024-01-30T02:21:04;33.80;31.00;20.00
62778;PMS7003;48821;48.796;2.396;2024-01-30T02:22:15;33.00;30.80;20.00
62778;PMS7003;48821;48.796;2.396;2024-01-30T02:23:27;31.20;28.20;19.00
62778;PMS7003;48821;48.796;2.396;2024-01-30T02:24:39;31.40;29.00;19.40
62778;PMS7003;48821;48.796;2.396;2024-01-30T02:25:51;34.00;29.80;18.40
62778;PMS7003;48821;48.796;2.396;2024-01-30T02:27:03;30.50;28.50;18.50
62778;PMS7003;48821;48.796;2.396;2024-01-30T02:28:15;30.40;28.20;19.00
62778;PMS7003;48821;48.796;2.396;2024-01-30T02:29:27;33.60;28.20;19.00
62778;PMS7003;48821;48.796;2.396;2024-01-30T02:30:39;30.20;28.80;19.80
62778;PMS7003;48821;48.796;2.396;2024-01-30T02:31:50;35.50;30.00;20.00
62778;PMS7003;48821;48.796;2.396;2024-01-30T02:33:02;32.20;29.00;19.00
62778;PMS7003;48821;48.796;2.396;2024-01-30T02:34:14;33.80;30.40;20.40
62778;PMS7003;48821;48.796;2.396;2024-01-30T02:35:26;33.20;29.40;18.80
62778;PMS7003;48821;48.796;2.396;2024-01-30T02:36:38;30.60;28.80;19.00
62778;PMS7003;48821;48.796;2.396;2024-01-30T02:37:50;28.40;24.60;17.40
62778;PMS7003;48821;48.796;2.396;2024-01-30T02:39:02;29.20;26.60;18.20
62778;PMS7003;48821;48.796;2.396;2024-01-30T02:40:14;34.33;30.00;19.67
62778;PMS7003;48821;48.796;2.396;2024-01-30T02:41:24;33.00;30.00;20.00
62778;PMS7003;48821;48.796;2.396;2024-01-30T02:42:36;33.20;29.80;19.80
62778;PMS7003;48821;48.796;2.396;2024-01-30T02:43:48;30.40;25.60;17.00
62778;PMS7003;48821;48.796;2.396;2024-01-30T02:45:00;28.80;25.40;16.80
62778;PMS7003;48821;48.796;2.396;2024-01-30T02:46:14;33.38;30.00;20.25
62778;PMS7003;48821;48.796;2.396;2024-01-30T02:47:25;31.00;28.50;19.50
62778;PMS7003;48821;48.796;2.396;2024-01-30T02:48:38;30.63;28.38;18.25
62778;PMS7003;48821;48.796;2.396;2024-01-30T02:49:50;31.33;29.33;17.33
62778;PMS7003;48821;48.796;2.396;2024-01-30T02:51:02;28.40;25.40;17.00
62778;PMS7003;48821;48.796;2.396;2024-01-30T02:52:14;36.20;28.60;17.20
62778;PMS7003;48821;48.796;2.396;2024-01-30T02:53:26;29.60;26.00;17.20
62778;PMS7003;48821;48.796;2.396;2024-01-30T02:54:38;32.00;29.00;19.00
62778;PMS7003;48821;48.796;2.396;2024-01-30T02:55:50;32.60;28.80;18.60
62778;PMS7003;48821;48.796;2.396;2024-01-30T02:57:02;30.20;25.80;14.60
62778;PMS7003;48821;48.796;2.396;2024-01-30T02:58:14;33.20;26.60;17.80
62778;PMS7003;48821;48.796;2.396;2024-01-30T02:59:26;27.33;25.33;16.00
62778;PMS7003;48821;48.796;2.396;2024-01-30T03:00:38;26.67;24.67;18.33
62778;PMS7003;48821;48.796;2.396;2024-01-30T03:01:50;30.60;25.60;18.60
62778;PMS7003;48821;48.796;2.396;2024-01-30T03:03:02;32.40;29.00;17.00
62778;PMS7003;48821;48.796;2.396;2024-01-30T03:04:14;27.00;25.40;17.80
62778;PMS7003;48821;48.796;2.396;2024-01-30T03:05:26;30.67;27.33;17.00
62778;PMS7003;48821;48.796;2.396;2024-01-30T03:06:38;28.00;25.67;16.00
62778;PMS7003;48821;48.796;2.396;2024-01-30T03:07:49;22.67;21.67;14.67
62778;PMS7003;48821;48.796;2.396;2024-01-30T03:09:01;26.80;25.20;16.20
62778;PMS7003;48821;48.796;2.396;2024-01-30T03:10:13;26.00;25.80;16.40
62778;PMS7003;48821;48.796;2.396;2024-01-30T03:11:25;31.80;29.40;18.00
62778;PMS7003;48821;48.796;2.396;2024-01-30T03:12:37;25.60;25.60;18.00
62778;PMS7003;48821;48.796;2.396;2024-01-30T03:13:49;25.20;23.00;15.40
62778;PMS7003;48821;48.796;2.396;2024-01-30T03:15:01;27.20;24.20;18.00
62778;PMS7003;48821;48.796;2.396;2024-01-30T03:16:13;25.60;25.00;16.80
62778;PMS7003;48821;48.796;2.396;2024-01-30T03:17:25;30.60;28.20;17.20
62778;PMS7003;48821;48.796;2.396;2024-01-30T03:18:37;29.40;25.60;17.00
62778;PMS7003;48821;48.796;2.396;2024-01-30T03:19:49;31.20;26.60;16.00
62778;PMS7003;48821;48.796;2.396;2024-01-30T03:21:01;29.67;25.67;18.67
62778;PMS7003;48821;48.796;2.396;2024-01-30T03:22:13;27.00;25.00;17.40
62778;PMS7003;48821;48.796;2.396;2024-01-30T03:23:25;30.20;26.80;18.00
62778;PMS7003;48821;48.796;2.396;2024-01-30T03:24:37;27.60;24.40;16.80
62778;PMS7003;48821;48.796;2.396;2024-01-30T03:25:49;28.60;24.60;16.80
62778;PMS7003;48821;48.796;2.396;2024-01-30T03:27:01;27.67;27.00;16.67
62778;PMS7003;48821;48.796;2.396;2024-01-30T03:28:13;28.40;27.60;18.80
62778;PMS7003;48821;48.796;2.396;2024-01-30T03:29:25;26.00;26.00;17.60
62778;PMS7003;48821;48.796;2.396;2024-01-30T03:30:37;26.40;24.80;18.00
62778;PMS7003;48821;48.796;2.396;2024-01-30T03:31:49;25.80;24.80;16.80
62778;PMS7003;48821;48.796;2.396;2024-01-30T03:33:01;28.40;27.60;17.80
62778;PMS7003;48821;48.796;2.396;2024-01-30T03:34:12;28.33;26.00;17.00
62778;PMS7003;48821;48.796;2.396;2024-01-30T03:35:24;29.80;24.60;17.20
62778;PMS7003;48821;48.796;2.396;2024-01-30T03:36:36;25.00;24.80;16.00
62778;PMS7003;48821;48.796;2.396;2024-01-30T03:37:48;30.00;25.80;17.00
62778;PMS7003;48821;48.796;2.396;2024-01-30T03:39:00;29.40;25.80;17.40
62778;PMS7003;48821;48.796;2.396;2024-01-30T03:40:12;20.00;18.00;16.67
62778;PMS7003;48821;48.796;2.396;2024-01-30T03:41:24;28.80;24.80;17.20
62778;PMS7003;48821;48.796;2.396;2024-01-30T03:42:36;25.00;24.00;15.80
62778;PMS7003;48821;48.796;2.396;2024-01-30T03:43:48;31.60;30.00;19.60
62778;PMS7003;48821;48.796;2.396;2024-01-30T03:45:00;26.00;24.60;16.40
62778;PMS7003;48821;48.796;2.396;2024-01-30T03:46:12;26.00;23.00;16.00
62778;PMS7003;48821;48.796;2.396;2024-01-30T03:47:22;27.00;24.00;15.50
62778;PMS7003;48821;48.796;2.396;2024-01-30T03:48:34;25.20;24.20;15.20
62778;PMS7003;48821;48.796;2.396;2024-01-30T03:49:46;28.00;26.00;15.00
62778;PMS7003;48821;48.796;2.396;2024-01-30T03:50:58;23.67;22.00;14.00
62778;PMS7003;48821;48.796;2.396;2024-01-30T03:52:10;27.60;25.80;14.80
62778;PMS7003;48821;48.796;2.396;2024-01-30T03:53:22;27.00;23.00;17.00
62778;PMS7003;48821;48.796;2.396;2024-01-30T03:54:34;28.33;22.33;15.33
62778;PMS7003;48821;48.796;2.396;2024-01-30T03:55:46;24.00;22.67;15.00
62778;PMS7003;48821;48.796;2.396;2024-01-30T03:56:58;29.20;23.40;16.40
62778;PMS7003;48821;48.796;2.396;2024-01-30T03:58:10;23.00;22.40;15.00
62778;PMS7003;48821;48.796;2.396;2024-01-30T03:59:22;24.00;22.67;16.00
62778;PMS7003;48821;48.796;2.396;2024-01-30T04:00:35;23.67;23.67;15.67
62778;PMS7003;48821;48.796;2.396;2024-01-30T04:01:47;25.40;22.40;14.80
62778;PMS7003;48821;48.796;2.396;2024-01-30T04:02:58;25.67;22.00;15.33
62778;PMS7003;48821;48.796;2.396;2024-01-30T04:04:10;23.60;23.00;14.20
62778;PMS7003;48821;48.796;2.396;2024-01-30T04:05:22;18.00;16.00;10.33
62778;PMS7003;48821;48.796;2.396;2024-01-30T04:06:34;22.00;20.40;13.80
62778;PMS7003;48821;48.796;2.396;2024-01-30T04:07:46;26.00;21.40;13.40
62778;PMS7003;48821;48.796;2.396;2024-01-30T04:08:58;25.40;21.00;15.40
62778;PMS7003;48821;48.796;2.396;2024-01-30T04:10:10;25.60;24.60;16.00
62778;PMS7003;48821;48.796;2.396;2024-01-30T04:11:22;23.40;22.80;14.20
62778;PMS7003;48821;48.796;2.396;2024-01-30T04:12:34;22.33;21.33;13.00
62778;PMS7003;48821;48.796;2.396;2024-01-30T04:13:46;23.00;22.00;12.60
62778;PMS7003;48821;48.796;2.396;2024-01-30T04:14:59;24.33;22.00;16.00
62778;PMS7003;48821;48.796;2.396;2024-01-30T04:16:18;24.67;22.00;13.33
62778;PMS7003;48821;48.796;2.396;2024-01-30T04:17:33;28.33;23.00;15.33
62778;PMS7003;48821;48.796;2.396;2024-01-30T04:18:45;22.33;20.67;13.00
62778;PMS7003;48821;48.796;2.396;2024-01-30T04:19:57;25.33;21.00;14.00
62778;PMS7003;48821;48.796;2.396;2024-01-30T04:21:09;22.67;19.67;14.00
62778;PMS7003;48821;48.796;2.396;2024-01-30T04:22:20;19.00;15.50;9.00
62778;PMS7003;48821;48.796;2.396;2024-01-30T04:23:32;21.60;19.40;11.80
62778;PMS7003;48821;48.796;2.396;2024-01-30T04:24:43;25.67;22.00;14.00
62778;PMS7003;48821;48.796;2.396;2024-01-30T04:25:55;21.33;18.00;11.67
62778;PMS7003;48821;48.796;2.396;2024-01-30T04:27:07;19.00;19.00;12.00
62778;PMS7003;48821;48.796;2.396;2024-01-30T04:28:18;20.67;17.00;12.00
62778;PMS7003;48821;48.796;2.396;2024-01-30T04:29:30;25.00;20.00;12.00
62778;PMS7003;48821;48.796;2.396;2024-01-30T04:30:42;19.00;18.00;12.00
62778;PMS7003;48821;48.796;2.396;2024-01-30T04:31:54;17.60;17.00;12.00
62778;PMS7003;48821;48.796;2.396;2024-01-30T04:33:06;25.67;21.00;14.67
62778;PMS7003;48821;48.796;2.396;2024-01-30T04:34:18;23.00;18.33;13.00
62778;PMS7003;48821;48.796;2.396;2024-01-30T04:35:30;26.20;20.80;12.80
62778;PMS7003;48821;48.796;2.396;2024-01-30T04:36:43;18.40;16.80;12.40
62778;PMS7003;48821;48.796;2.396;2024-01-30T04:37:55;22.00;18.50;11.50
62778;PMS7003;48821;48.796;2.396;2024-01-30T04:39:07;21.33;20.00;14.00
62778;PMS7003;48821;48.796;2.396;2024-01-30T04:40:20;24.67;21.67;12.00
62778;PMS7003;48821;48.796;2.396;2024-01-30T04:41:31;19.50;18.00;11.00
62778;PMS7003;48821;48.796;2.396;2024-01-30T04:42:42;17.00;15.00;11.00
62778;PMS7003;48821;48.796;2.396;2024-01-30T04:43:54;22.00;19.67;11.33
62778;PMS7003;48821;48.796;2.396;2024-01-30T04:45:06;20.20;19.00;13.20
62778;PMS7003;48821;48.796;2.396;2024-01-30T04:46:18;20.67;20.00;13.33
62778;PMS7003;48821;48.796;2.396;2024-01-30T04:47:29;13.00;13.00;11.00
62778;PMS7003;48821;48.796;2.396;2024-01-30T04:48:40;17.40;17.40;12.60
62778;PMS7003;48821;48.796;2.396;2024-01-30T04:49:52;21.00;18.33;11.00
62778;PMS7003;48821;48.796;2.396;2024-01-30T04:51:04;20.00;19.33;12.00
62778;PMS7003;48821;48.796;2.396;2024-01-30T04:52:16;19.33;15.33;10.00
62778;PMS7003;48821;48.796;2.396;2024-01-30T04:53:29;19.80;19.40;12.80
62778;PMS7003;48821;48.796;2.396;2024-01-30T04:54:41;19.50;19.00;13.00
62778;PMS7003;48821;48.796;2.396;2024-01-30T04:55:53;24.00;20.00;13.00
62778;PMS7003;48821;48.796;2.396;2024-01-30T04:57:05;22.00;17.33;11.00
62778;PMS7003;48821;48.796;2.396;2024-01-30T04:58:20;25.00;21.00;12.67
62778;PMS7003;48821;48.796;2.396;2024-01-30T04:59:32;21.00;16.40;12.20
62778;PMS7003;48821;48.796;2.396;2024-01-30T05:00:44;20.33;18.67;13.33
62778;PMS7003;48821;48.796;2.396;2024-01-30T05:01:57;24.00;21.00;14.00
62778;PMS7003;48821;48.796;2.396;2024-01-30T05:03:09;24.67;21.00;13.00
62778;PMS7003;48821;48.796;2.396;2024-01-30T05:04:20;20.33;19.00;13.00
62778;PMS7003;48821;48.796;2.396;2024-01-30T05:05:33;21.67;18.00;12.00
62778;PMS7003;48821;48.796;2.396;2024-01-30T05:06:45;23.20;22.20;14.00
62778;PMS7003;48821;48.796;2.396;2024-01-30T05:07:56;22.00;20.00;14.00
62778;PMS7003;48821;48.796;2.396;2024-01-30T05:09:08;24.80;22.40;14.60
62778;PMS7003;48821;48.796;2.396;2024-01-30T05:10:20;27.67;24.33;15.00
62778;PMS7003;48821;48.796;2.396;2024-01-30T05:11:36;26.33;25.00;15.33
62778;PMS7003;48821;48.796;2.396;2024-01-30T05:12:49;23.67;21.00;14.67
62778;PMS7003;48821;48.796;2.396;2024-01-30T05:14:01;28.00;22.33;14.00
62778;PMS7003;48821;48.796;2.396;2024-01-30T05:15:13;21.33;20.00;14.00
62778;PMS7003;48821;48.796;2.396;2024-01-30T05:16:25;22.60;21.40;13.00
62778;PMS7003;48821;48.796;2.396;2024-01-30T05:17:37;25.33;20.67;14.00
62778;PMS7003;48821;48.796;2.396;2024-01-30T05:18:48;23.00;19.00;14.33
62778;PMS7003;48821;48.796;2.396;2024-01-30T05:20:00;24.67;21.67;15.00
62778;PMS7003;48821;48.796;2.396;2024-01-30T05:21:12;28.33;25.67;16.00
62778;PMS7003;48821;48.796;2.396;2024-01-30T05:22:24;21.80;19.80;14.20
62778;PMS7003;48821;48.796;2.396;2024-01-30T05:23:36;22.33;20.33;14.67
62778;PMS7003;48821;48.796;2.396;2024-01-30T05:24:48;19.67;18.67;12.00
62778;PMS7003;48821;48.796;2.396;2024-01-30T05:26:00;23.67;21.00;14.00
62778;PMS7003;48821;48.796;2.396;2024-01-30T05:27:11;24.00;21.50;12.50
62778;PMS7003;48821;48.796;2.396;2024-01-30T05:28:24;20.67;20.33;12.00
62778;PMS7003;48821;48.796;2.396;2024-01-30T05:29:36;21.67;18.67;10.67
62778;PMS7003;48821;48.796;2.396;2024-01-30T05:30:47;19.00;14.50;8.50
62778;PMS7003;48821;48.796;2.396;2024-01-30T05:31:58;17.00;15.00;10.00
62778;PMS7003;48821;48.796;2.396;2024-01-30T05:33:09;14.00;13.00;9.50
62778;PMS7003;48821;48.796;2.396;2024-01-30T05:34:22;19.00;17.00;11.00
62778;PMS7003;48821;48.796;2.396;2024-01-30T05:35:34;19.00;18.00;11.67
62778;PMS7003;48821;48.796;2.396;2024-01-30T05:36:46;17.67;17.67;11.67
62778;PMS7003;48821;48.796;2.396;2024-01-30T05:37:58;18.33;15.67;10.67
62778;PMS7003;48821;48.796;2.396;2024-01-30T05:39:10;20.00;17.00;11.00
62778;PMS7003;48821;48.796;2.396;2024-01-30T05:40:21;17.00;16.00;12.00
62778;PMS7003;48821;48.796;2.396;2024-01-30T05:41:32;20.00;19.00;9.50
62778;PMS7003;48821;48.796;2.396;2024-01-30T05:42:43;18.00;15.50;10.00
62778;PMS7003;48821;48.796;2.396;2024-01-30T05:43:54;17.67;15.33;10.00
62778;PMS7003;48821;48.796;2.396;2024-01-30T05:45:06;14.60;13.80;7.20
62778;PMS7003;48821;48.796;2.396;2024-01-30T05:46:18;11.00;10.00;9.50
62778;PMS7003;48821;48.796;2.396;2024-01-30T05:47:29;16.00;14.50;11.00
62778;PMS7003;48821;48.796;2.396;2024-01-30T05:48:40;14.50;14.00;6.00
62778;PMS7003;48821;48.796;2.396;2024-01-30T05:49:52;15.00;13.60;9.80
62778;PMS7003;48821;48.796;2.396;2024-01-30T05:51:02;20.00;15.50;10.00
62778;PMS7003;48821;48.796;2.396;2024-01-30T05:52:16;15.40;14.00;7.80
62778;PMS7003;48821;48.796;2.396;2024-01-30T05:53:29;14.20;13.00;8.80
62778;PMS7003;48821;48.796;2.396;2024-01-30T05:54:40;15.00;13.00;9.00
62778;PMS7003;48821;48.796;2.396;2024-01-30T05:55:51;16.00;16.00;10.50
62778;PMS7003;48821;48.796;2.396;2024-01-30T05:57:02;17.50;14.00;9.00
62778;PMS7003;48821;48.796;2.396;2024-01-30T05:58:16;14.00;13.86;10.29
62778;PMS7003;48821;48.796;2.396;2024-01-30T05:59:29;18.17;15.50;9.33
62778;PMS7003;48821;48.796;2.396;2024-01-30T06:00:41;16.67;13.33;9.00
62778;PMS7003;48821;48.796;2.396;2024-01-30T06:01:54;19.00;16.17;10.00
62778;PMS7003;48821;48.796;2.396;2024-01-30T06:03:05;18.50;18.50;11.00
62778;PMS7003;48821;48.796;2.396;2024-01-30T06:04:16;16.00;14.00;9.00
62778;PMS7003;48821;48.796;2.396;2024-01-30T06:05:28;19.50;15.33;9.67
62778;PMS7003;48821;48.796;2.396;2024-01-30T06:06:40;16.50;14.50;9.00
62778;PMS7003;48821;48.796;2.396;2024-01-30T06:07:52;18.00;16.20;10.40
62778;PMS7003;48821;48.796;2.396;2024-01-30T06:09:03;18.50;16.50;10.00
62778;PMS7003;48821;48.796;2.396;2024-01-30T06:10:14;12.00;10.00;7.00
62778;PMS7003;48821;48.796;2.396;2024-01-30T06:11:26;18.33;15.67;11.33
62778;PMS7003;48821;48.796;2.396;2024-01-30T06:12:38;20.67;16.00;10.67
62778;PMS7003;48821;48.796;2.396;2024-01-30T06:13:48;15.00;14.00;9.00
62778;PMS7003;48821;48.796;2.396;2024-01-30T06:15:00;18.75;15.00;10.25
62778;PMS7003;48821;48.796;2.396;2024-01-30T06:16:10;15.50;15.00;11.00
62778;PMS7003;48821;48.796;2.396;2024-01-30T06:17:25;22.00;17.00;11.67
62778;PMS7003;48821;48.796;2.396;2024-01-30T06:18:36;16.75;15.50;8.00
62778;PMS7003;48821;48.796;2.396;2024-01-30T06:19:46;15.00;15.00;9.00
62778;PMS7003;48821;48.796;2.396;2024-01-30T06:20:58;19.00;16.67;10.67
62778;PMS7003;48821;48.796;2.396;2024-01-30T06:22:10;18.67;17.33;11.00
62778;PMS7003;48821;48.796;2.396;2024-01-30T06:23:21;14.00;14.00;9.00
62778;PMS7003;48821;48.796;2.396;2024-01-30T06:24:34;18.83;17.00;10.33
62778;PMS7003;48821;48.796;2.396;2024-01-30T06:25:45;18.00;14.00;10.00
62778;PMS7003;48821;48.796;2.396;2024-01-30T06:26:56;13.67;9.67;5.00
62778;PMS7003;48821;48.796;2.396;2024-01-30T06:28:09;17.50;17.50;10.50
62778;PMS7003;48821;48.796;2.396;2024-01-30T06:29:22;17.50;15.33;10.67
62778;PMS7003;48821;48.796;2.396;2024-01-30T06:30:34;8.50;8.50;5.50
62778;PMS7003;48821;48.796;2.396;2024-01-30T06:31:45;16.50;14.00;10.75
62778;PMS7003;48821;48.796;2.396;2024-01-30T06:32:59;21.71;17.71;11.29
62778;PMS7003;48821;48.796;2.396;2024-01-30T06:34:11;18.33;15.67;10.67
62778;PMS7003;48821;48.796;2.396;2024-01-30T06:35:22;21.50;17.00;12.00
62778;PMS7003;48821;48.796;2.396;2024-01-30T06:36:35;18.83;18.83;12.33
62778;PMS7003;48821;48.796;2.396;2024-01-30T06:37:46;17.00;17.00;10.67
62778;PMS7003;48821;48.796;2.396;2024-01-30T06:39:02;20.86;15.86;9.71
62778;PMS7003;48821;48.796;2.396;2024-01-30T06:40:16;13.83;12.50;7.50
62778;PMS7003;48821;48.796;2.396;2024-01-30T06:41:27;18.67;16.67;11.33
62778;PMS7003;48821;48.796;2.396;2024-01-30T06:42:39;20.33;19.67;12.00
62778;PMS7003;48821;48.796;2.396;2024-01-30T06:43:51;20.00;18.00;12.67